createdAt,value
2023-02-28T00:00:36.760Z,3.50
2023-02-28T00:03:03.907Z,3.17
2023-02-28T00:05:31.053Z,3.30
2023-02-28T00:07:57.847Z,3.73
2023-02-28T00:10:30.803Z,3.30
2023-02-28T00:13:01.706Z,3.43
2023-02-28T00:15:28.599Z,3.33
2023-02-28T00:17:55.720Z,2.90
2023-02-28T00:20:22.613Z,3.20
2023-02-28T00:22:51.835Z,3.10
2023-02-28T00:25:21.823Z,3.40
2023-02-28T00:27:49.112Z,2.87
2023-02-28T00:30:19.471Z,2.93
2023-02-28T00:32:46.504Z,3.60
2023-02-28T00:35:13.873Z,2.50
2023-02-28T00:37:40.631Z,3.00
2023-02-28T00:40:09.077Z,3.60
2023-02-28T00:42:36.156Z,3.33
2023-02-28T00:45:05.308Z,3.07
2023-02-28T00:47:33.100Z,4.17
2023-02-28T00:50:01.850Z,3.53
2023-02-28T00:52:28.715Z,3.83
2023-02-28T00:54:55.746Z,3.50
2023-02-28T00:57:22.619Z,3.60
2023-02-28T00:59:49.497Z,3.70
2023-02-28T01:02:16.356Z,3.37
2023-02-28T01:04:43.204Z,3.33
2023-02-28T01:07:10.468Z,3.57
2023-02-28T01:09:37.243Z,3.93
2023-02-28T01:12:04.617Z,3.87
2023-02-28T01:14:31.340Z,3.43
2023-02-28T01:16:58.070Z,3.67
2023-02-28T01:19:24.787Z,4.03
2023-02-28T01:21:51.503Z,3.50
2023-02-28T01:24:18.219Z,3.50
2023-02-28T01:26:44.927Z,3.47
2023-02-28T01:29:11.889Z,4.20
2023-02-28T01:31:38.734Z,3.80
2023-02-28T01:34:05.502Z,3.20
2023-02-28T01:36:32.279Z,3.43
2023-02-28T01:38:59.100Z,3.50
2023-02-28T01:41:30.686Z,3.67
2023-02-28T01:44:04.382Z,3.90
2023-02-28T01:46:34.003Z,3.57
2023-02-28T01:49:09.823Z,3.93
2023-02-28T01:51:46.657Z,3.53
2023-02-28T01:54:19.462Z,3.40
2023-02-28T01:57:07.370Z,3.90
2023-02-28T01:59:47.262Z,3.43
2023-02-28T02:02:15.808Z,3.53
2023-02-28T02:04:56.089Z,3.87
2023-02-28T02:07:25.906Z,3.53
2023-02-28T02:10:03.224Z,4.07
2023-02-28T02:13:06.267Z,3.93
2023-02-28T02:15:40.545Z,3.47
2023-02-28T02:18:30.933Z,3.93
2023-02-28T02:20:57.591Z,3.67
2023-02-28T02:23:52.686Z,4.20
2023-02-28T02:26:34.373Z,3.73
2023-02-28T02:29:37.092Z,4.33
2023-02-28T02:32:37.438Z,3.73
2023-02-28T02:35:36.359Z,3.27
2023-02-28T02:38:35.434Z,4.23
2023-02-28T02:41:30.988Z,3.70
2023-02-28T02:44:05.029Z,4.00
2023-02-28T02:46:48.219Z,3.60
2023-02-28T02:49:22.782Z,3.80
2023-02-28T02:51:50.669Z,4.13
2023-02-28T02:54:29.652Z,3.70
2023-02-28T02:56:59.647Z,3.57
2023-02-28T02:59:29.352Z,4.30
2023-02-28T03:02:00.319Z,4.20
2023-02-28T03:04:33.255Z,4.23
2023-02-28T03:07:00.135Z,3.80
2023-02-28T03:09:27.550Z,3.83
2023-02-28T03:11:57.084Z,4.30
2023-02-28T03:14:35.681Z,4.20
2023-02-28T03:17:20.967Z,4.17
2023-02-28T03:19:55.876Z,3.87
2023-02-28T03:22:50.493Z,4.47
2023-02-28T03:25:17.190Z,4.23
2023-02-28T03:28:13.658Z,4.50
2023-02-28T03:30:47.416Z,4.50
2023-02-28T03:33:20.665Z,4.43
2023-02-28T03:35:53.215Z,4.30
2023-02-28T03:38:42.347Z,4.10
2023-02-28T03:41:23.459Z,4.93
2023-02-28T03:44:25.766Z,4.57
2023-02-28T03:47:01.073Z,4.47
2023-02-28T03:49:33.331Z,3.90
2023-02-28T03:52:03.257Z,5.03
2023-02-28T03:54:34.100Z,4.60
2023-02-28T03:57:09.483Z,4.70
2023-02-28T03:59:44.625Z,4.10
2023-02-28T04:02:11.858Z,4.10
2023-02-28T04:04:38.944Z,4.77
2023-02-28T04:07:08.543Z,4.90
2023-02-28T04:09:35.320Z,4.90
2023-02-28T04:12:02.017Z,4.60
2023-02-28T04:14:28.769Z,4.73
2023-02-28T04:16:55.438Z,4.53
2023-02-28T04:19:22.192Z,4.13
2023-02-28T04:21:51.377Z,4.70
2023-02-28T04:24:21.700Z,4.63
2023-02-28T04:26:50.914Z,4.70
2023-02-28T04:29:23.895Z,4.87
2023-02-28T04:31:51.116Z,4.83
2023-02-28T04:34:19.956Z,4.70
2023-02-28T04:36:47.178Z,4.97
2023-02-28T04:39:14.466Z,4.80
2023-02-28T04:41:41.149Z,5.10
2023-02-28T04:44:08.013Z,5.40
2023-02-28T04:46:34.684Z,5.20
2023-02-28T04:49:01.395Z,4.83
2023-02-28T04:51:28.497Z,5.10
2023-02-28T04:53:55.865Z,4.77
2023-02-28T04:56:23.350Z,4.83
2023-02-28T04:58:50.609Z,4.77
2023-02-28T05:01:21.898Z,4.70
2023-02-28T05:03:49.298Z,5.00
2023-02-28T05:06:16.595Z,5.17
2023-02-28T05:08:43.887Z,5.17
2023-02-28T05:11:17.444Z,5.23
2023-02-28T05:13:44.381Z,5.70
2023-02-28T05:16:11.387Z,4.90
2023-02-28T05:18:38.812Z,5.60
2023-02-28T05:21:06.130Z,5.57
2023-02-28T05:23:34.714Z,5.73
2023-02-28T05:26:02.510Z,4.70
2023-02-28T05:28:30.451Z,5.77
2023-02-28T05:30:58.399Z,5.63
2023-02-28T05:33:25.202Z,5.40
2023-02-28T05:35:51.921Z,5.83
2023-02-28T05:38:18.910Z,5.17
2023-02-28T05:40:45.789Z,5.60
2023-02-28T05:43:13.095Z,5.07
2023-02-28T05:45:40.010Z,6.03
2023-02-28T05:48:06.926Z,5.83
2023-02-28T05:50:33.620Z,5.33
2023-02-28T05:53:00.554Z,5.10
2023-02-28T05:55:27.255Z,5.93
2023-02-28T05:57:53.948Z,5.63
2023-02-28T06:00:20.991Z,6.30
2023-02-28T06:02:47.721Z,5.93
2023-02-28T06:05:17.292Z,5.73
2023-02-28T06:07:45.024Z,5.63
2023-02-28T06:10:12.303Z,5.63
2023-02-28T06:12:39.420Z,6.07
2023-02-28T06:15:06.632Z,5.93
2023-02-28T06:17:33.446Z,5.60
2023-02-28T06:20:00.449Z,5.93
2023-02-28T06:22:27.529Z,5.93
2023-02-28T06:24:55.719Z,5.77
2023-02-28T06:27:23.132Z,6.23
2023-02-28T06:29:50.126Z,5.77
2023-02-28T06:32:16.954Z,6.67
2023-02-28T06:34:44.027Z,7.53
2023-02-28T06:37:10.738Z,8.17
2023-02-28T06:39:37.440Z,6.00
2023-02-28T06:42:04.532Z,5.87
2023-02-28T06:44:36.287Z,6.33
2023-02-28T06:47:04.748Z,5.80
2023-02-28T06:49:33.700Z,6.40
2023-02-28T06:52:00.636Z,6.30
2023-02-28T06:54:28.248Z,6.53
2023-02-28T06:56:58.023Z,6.73
2023-02-28T06:59:24.748Z,6.37
2023-02-28T07:01:51.500Z,6.70
2023-02-28T07:04:18.438Z,6.47
2023-02-28T07:06:45.282Z,6.60
2023-02-28T07:09:11.975Z,6.77
2023-02-28T07:11:38.683Z,6.77
2023-02-28T07:14:05.459Z,7.00
2023-02-28T07:16:32.236Z,6.93
2023-02-28T07:18:59.138Z,6.87
2023-02-28T07:21:25.998Z,6.63
2023-02-28T07:23:52.996Z,7.10
2023-02-28T07:26:20.887Z,6.53
2023-02-28T07:28:49.171Z,7.13
2023-02-28T07:31:16.885Z,7.00
2023-02-28T07:33:44.523Z,6.90
2023-02-28T07:36:18.336Z,6.87
2023-02-28T07:38:48.654Z,6.60
2023-02-28T07:41:20.954Z,7.07
2023-02-28T07:43:48.395Z,7.13
2023-02-28T07:46:17.646Z,7.10
2023-02-28T07:48:45.235Z,6.87
2023-02-28T07:51:11.963Z,7.00
2023-02-28T07:53:39.010Z,6.97
2023-02-28T07:56:06.230Z,6.77
2023-02-28T07:58:33.010Z,7.43
2023-02-28T08:01:07.541Z,7.73
2023-02-28T08:03:34.732Z,6.90
2023-02-28T08:06:01.634Z,7.70
2023-02-28T08:08:32.272Z,7.07
2023-02-28T08:11:04.194Z,7.00
2023-02-28T08:13:32.003Z,6.97
2023-02-28T08:15:59.373Z,7.30
2023-02-28T08:18:26.210Z,7.10
2023-02-28T08:20:53.071Z,7.07
2023-02-28T08:23:20.286Z,6.97
2023-02-28T08:25:55.993Z,7.77
2023-02-28T08:28:25.502Z,7.30
2023-02-28T08:30:53.487Z,7.63
2023-02-28T08:33:20.510Z,7.40
2023-02-28T08:35:47.568Z,7.40
2023-02-28T08:38:14.385Z,7.57
2023-02-28T08:40:41.722Z,7.83
2023-02-28T08:43:08.474Z,7.13
2023-02-28T08:45:35.333Z,7.80
2023-02-28T08:48:02.153Z,7.47
2023-02-28T08:50:28.855Z,7.30
2023-02-28T08:52:58.312Z,7.47
2023-02-28T08:55:28.891Z,7.90
2023-02-28T08:57:58.650Z,7.70
2023-02-28T09:00:26.466Z,7.70
2023-02-28T09:02:53.652Z,7.70
2023-02-28T09:05:20.410Z,7.50
2023-02-28T09:07:47.247Z,7.80
2023-02-28T09:10:14.971Z,7.53
2023-02-28T09:12:42.333Z,7.57
2023-02-28T09:15:09.904Z,7.40
2023-02-28T09:17:36.953Z,8.73
2023-02-28T09:20:03.832Z,8.10
2023-02-28T09:22:30.807Z,7.97
2023-02-28T09:24:57.751Z,7.60
2023-02-28T09:27:24.540Z,8.87
2023-02-28T09:29:51.572Z,7.60
2023-02-28T09:32:19.028Z,8.10
2023-02-28T09:34:46.634Z,7.93
2023-02-28T09:37:13.387Z,7.90
2023-02-28T09:39:40.210Z,7.97
2023-02-28T09:42:12.445Z,7.17
2023-02-28T09:44:44.606Z,7.63
2023-02-28T09:47:34.445Z,7.80
2023-02-28T09:50:23.084Z,8.53
2023-02-28T09:52:53.561Z,7.87
2023-02-28T09:55:32.725Z,8.13
2023-02-28T09:58:02.560Z,9.33
2023-02-28T10:00:37.159Z,7.27
2023-02-28T10:03:16.173Z,7.30
2023-02-28T10:05:51.210Z,7.43
2023-02-28T10:08:31.277Z,7.27
2023-02-28T10:11:08.642Z,7.13
2023-02-28T10:14:06.804Z,8.00
2023-02-28T10:16:54.662Z,7.40
2023-02-28T10:19:37.443Z,7.43
2023-02-28T10:22:16.393Z,6.93
2023-02-28T10:24:45.370Z,7.50
2023-02-28T10:27:24.145Z,7.53
2023-02-28T10:29:53.031Z,7.50
2023-02-28T10:32:23.612Z,7.90
2023-02-28T10:35:08.524Z,7.20
2023-02-28T10:37:39.710Z,7.27
2023-02-28T10:40:27.141Z,7.20
2023-02-28T10:43:13.682Z,7.87
2023-02-28T10:45:53.246Z,7.90
2023-02-28T10:48:20.086Z,7.23
2023-02-28T10:50:52.599Z,7.60
2023-02-28T10:53:28.256Z,7.97
2023-02-28T10:56:17.622Z,7.50
2023-02-28T10:59:18.259Z,7.90
2023-02-28T11:01:50.144Z,7.33
2023-02-28T11:04:41.051Z,7.60
2023-02-28T11:07:24.412Z,7.97
2023-02-28T11:09:55.126Z,7.77
2023-02-28T11:12:29.343Z,8.43
2023-02-28T11:15:02.920Z,7.67
2023-02-28T11:17:32.638Z,8.53
2023-02-28T11:20:08.638Z,8.07
2023-02-28T11:22:40.000Z,9.40
2023-02-28T11:25:31.863Z,7.77
2023-02-28T11:28:07.573Z,7.80
2023-02-28T11:30:43.088Z,7.47
2023-02-28T11:33:33.902Z,8.80
2023-02-28T11:36:11.780Z,8.70
2023-02-28T11:38:45.101Z,7.40
2023-02-28T11:41:41.319Z,7.40
2023-02-28T11:44:17.349Z,8.53
2023-02-28T11:47:13.879Z,8.13
2023-02-28T11:50:08.264Z,7.67
2023-02-28T11:52:46.755Z,8.23
2023-02-28T11:55:17.293Z,7.33
2023-02-28T11:57:57.915Z,7.20
2023-02-28T12:00:43.538Z,6.83
2023-02-28T12:03:20.590Z,7.27
2023-02-28T12:05:56.213Z,6.73
2023-02-28T12:08:27.472Z,6.87
2023-02-28T12:11:28.365Z,7.33
2023-02-28T12:14:12.258Z,6.60
2023-02-28T12:16:56.698Z,7.00
2023-02-28T12:19:39.266Z,6.93
2023-02-28T12:22:34.038Z,7.37
2023-02-28T12:25:30.913Z,7.03
2023-02-28T12:27:58.047Z,6.90
2023-02-28T12:30:54.391Z,6.77
2023-02-28T12:33:25.454Z,7.83
2023-02-28T12:36:00.117Z,7.10
2023-02-28T12:38:37.542Z,7.47
2023-02-28T12:41:13.697Z,7.47
2023-02-28T12:43:48.959Z,8.47
2023-02-28T12:46:30.760Z,6.40
2023-02-28T12:48:59.909Z,7.13
2023-02-28T12:51:28.274Z,6.93
2023-02-28T12:54:19.719Z,6.90
2023-02-28T12:56:55.340Z,7.20
2023-02-28T13:00:02.638Z,6.27
2023-02-28T13:02:56.624Z,6.87
2023-02-28T13:06:12.485Z,7.37
2023-02-28T13:09:05.973Z,6.73
2023-02-28T13:11:40.877Z,7.00
2023-02-28T13:14:26.944Z,6.80
2023-02-28T13:17:09.927Z,7.37
2023-02-28T13:19:38.925Z,6.07
2023-02-28T13:22:06.852Z,7.07
2023-02-28T13:24:53.741Z,6.73
2023-02-28T13:27:33.101Z,7.77
2023-02-28T13:30:01.238Z,7.97
2023-02-28T13:32:34.011Z,7.40
2023-02-28T13:35:00.683Z,8.00
2023-02-28T13:37:30.426Z,6.90
2023-02-28T13:40:37.633Z,7.77
2023-02-28T13:43:10.364Z,6.97
2023-02-28T13:45:39.525Z,7.00
2023-02-28T13:48:27.381Z,7.27
2023-02-28T13:50:54.466Z,7.97
2023-02-28T13:53:37.344Z,7.80
2023-02-28T13:56:04.115Z,7.93
2023-02-28T13:58:36.849Z,6.83
2023-02-28T14:01:22.269Z,7.63
2023-02-28T14:04:01.657Z,8.13
2023-02-28T14:06:33.827Z,7.10
2023-02-28T14:09:28.266Z,7.83
2023-02-28T14:11:55.861Z,7.83
2023-02-28T14:14:37.554Z,7.27
2023-02-28T14:17:06.647Z,8.87
2023-02-28T14:19:36.187Z,7.57
2023-02-28T14:22:13.216Z,7.87
2023-02-28T14:24:42.782Z,8.30
2023-02-28T14:27:26.169Z,6.57
2023-02-28T14:30:02.296Z,7.23
2023-02-28T14:32:47.732Z,8.70
2023-02-28T14:35:26.344Z,9.07
2023-02-28T14:37:54.337Z,7.80
2023-02-28T14:40:31.138Z,7.97
2023-02-28T14:43:03.401Z,8.43
2023-02-28T14:45:36.936Z,8.00
2023-02-28T14:48:10.000Z,8.00
2023-02-28T14:50:38.488Z,8.07
2023-02-28T14:53:15.632Z,8.67
2023-02-28T14:55:46.918Z,7.83
2023-02-28T14:58:28.982Z,8.20
2023-02-28T15:01:02.078Z,7.67
2023-02-28T15:03:38.860Z,7.83
2023-02-28T15:06:17.854Z,7.87
2023-02-28T15:08:46.137Z,8.17
2023-02-28T15:11:23.289Z,8.97
2023-02-28T15:13:58.807Z,8.47
2023-02-28T15:16:43.934Z,7.93
2023-02-28T15:19:39.051Z,7.77
2023-02-28T15:22:19.106Z,7.33
2023-02-28T15:24:50.989Z,9.27
2023-02-28T15:27:26.994Z,7.53
2023-02-28T15:30:07.531Z,9.77
2023-02-28T15:32:38.177Z,8.50
2023-02-28T15:35:23.656Z,8.80
2023-02-28T15:38:03.691Z,8.30
2023-02-28T15:40:36.568Z,7.40
2023-02-28T15:43:29.732Z,8.50
2023-02-28T15:46:07.494Z,9.20
2023-02-28T15:48:37.041Z,8.57
2023-02-28T15:51:08.009Z,8.47
2023-02-28T15:53:52.263Z,8.47
2023-02-28T15:56:28.745Z,8.17
2023-02-28T15:59:05.256Z,7.80
2023-02-28T16:01:40.735Z,7.57
2023-02-28T16:04:18.312Z,7.07
2023-02-28T16:07:06.283Z,7.90
2023-02-28T16:09:35.151Z,7.97
2023-02-28T16:12:04.171Z,7.93
2023-02-28T16:14:31.790Z,8.57
2023-02-28T16:17:09.790Z,8.27
2023-02-28T16:19:36.516Z,7.97
2023-02-28T16:22:03.280Z,7.23
2023-02-28T16:24:30.030Z,8.03
2023-02-28T16:26:58.108Z,8.67
2023-02-28T16:29:32.240Z,8.37
2023-02-28T16:32:00.083Z,8.50
2023-02-28T16:34:26.913Z,7.80
2023-02-28T16:36:54.438Z,8.80
2023-02-28T16:39:21.791Z,8.90
2023-02-28T16:41:50.839Z,8.13
2023-02-28T16:44:31.105Z,8.50
2023-02-28T16:46:58.122Z,8.30
2023-02-28T16:49:25.997Z,8.97
2023-02-28T16:51:53.599Z,9.97
2023-02-28T16:54:20.638Z,8.30
2023-02-28T16:56:49.336Z,8.63
2023-02-28T16:59:26.243Z,9.30
2023-02-28T17:01:54.438Z,8.57
2023-02-28T17:04:22.053Z,8.93
2023-02-28T17:06:49.099Z,9.50
2023-02-28T17:09:26.217Z,10.60
2023-02-28T17:11:57.989Z,10.73
2023-02-28T17:14:25.196Z,9.83
2023-02-28T17:16:52.450Z,9.40
2023-02-28T17:19:19.449Z,9.40
2023-02-28T17:21:46.635Z,9.20
2023-02-28T17:24:16.581Z,11.43
2023-02-28T17:26:46.260Z,11.50
2023-02-28T17:29:23.103Z,10.90
2023-02-28T17:31:50.109Z,10.13
2023-02-28T17:34:19.438Z,10.70
2023-02-28T17:36:47.944Z,9.87
2023-02-28T17:39:16.576Z,10.10
2023-02-28T17:41:43.630Z,10.50
2023-02-28T17:44:11.009Z,10.77
2023-02-28T17:46:38.638Z,9.90
2023-02-28T17:49:06.306Z,11.00
2023-02-28T17:51:33.439Z,11.27
2023-02-28T17:54:01.262Z,10.87
2023-02-28T17:56:28.769Z,11.30
2023-02-28T17:58:57.413Z,10.77
2023-02-28T18:01:28.519Z,11.13
2023-02-28T18:03:56.866Z,11.17
2023-02-28T18:06:28.457Z,11.70
2023-02-28T18:08:55.852Z,12.20
2023-02-28T18:11:24.233Z,12.17
2023-02-28T18:13:59.113Z,12.70
2023-02-28T18:16:25.897Z,13.60
2023-02-28T18:18:53.147Z,13.60
2023-02-28T18:21:19.855Z,11.97
2023-02-28T18:23:50.303Z,12.67
2023-02-28T18:26:19.094Z,11.40
2023-02-28T18:28:46.954Z,13.20
2023-02-28T18:31:16.436Z,12.57
2023-02-28T18:33:44.717Z,13.40
2023-02-28T18:36:11.623Z,13.80
2023-02-28T18:38:38.352Z,15.00
2023-02-28T18:41:07.171Z,13.87
2023-02-28T18:43:36.382Z,15.43
2023-02-28T18:46:12.507Z,13.57
2023-02-28T18:48:39.706Z,13.00
2023-02-28T18:51:17.462Z,14.70
2023-02-28T18:53:45.088Z,13.27
2023-02-28T18:56:14.894Z,14.07
2023-02-28T18:58:42.403Z,13.20
2023-02-28T19:01:22.837Z,14.43
2023-02-28T19:03:51.279Z,13.77
2023-02-28T19:06:19.677Z,13.10
2023-02-28T19:08:47.398Z,13.97
2023-02-28T19:11:17.007Z,14.33
2023-02-28T19:13:44.529Z,12.63
2023-02-28T19:16:12.924Z,12.47
2023-02-28T19:18:40.278Z,13.23
2023-02-28T19:21:08.960Z,13.20
2023-02-28T19:23:36.354Z,14.53
2023-02-28T19:26:11.306Z,13.80
2023-02-28T19:28:38.695Z,13.60
2023-02-28T19:31:11.361Z,14.00
2023-02-28T19:33:38.582Z,13.00
2023-02-28T19:36:05.538Z,13.20
2023-02-28T19:38:32.209Z,13.17
2023-02-28T19:41:07.438Z,12.47
2023-02-28T19:43:34.385Z,11.90
2023-02-28T19:46:01.356Z,11.53
2023-02-28T19:48:28.590Z,11.80
2023-02-28T19:51:07.331Z,12.30
2023-02-28T19:53:35.932Z,11.27
2023-02-28T19:56:04.475Z,10.73
2023-02-28T19:58:32.312Z,12.77
2023-02-28T20:01:01.396Z,11.73
2023-02-28T20:03:28.324Z,11.83
2023-02-28T20:06:03.751Z,13.43
2023-02-28T20:08:31.059Z,14.20
2023-02-28T20:11:03.286Z,12.03
2023-02-28T20:13:30.620Z,11.67
2023-02-28T20:16:00.917Z,12.27
2023-02-28T20:18:28.103Z,12.50
2023-02-28T20:20:54.908Z,12.07
2023-02-28T20:23:21.713Z,12.30
2023-02-28T20:25:48.934Z,12.13
2023-02-28T20:28:15.763Z,12.47
2023-02-28T20:30:42.718Z,12.87
2023-02-28T20:33:09.647Z,13.93
2023-02-28T20:35:36.569Z,13.13
2023-02-28T20:38:03.426Z,14.13
2023-02-28T20:40:30.177Z,14.27
2023-02-28T20:42:57.161Z,14.10
2023-02-28T20:45:24.616Z,13.73
2023-02-28T20:47:51.643Z,13.83
2023-02-28T20:50:18.604Z,14.73
2023-02-28T20:52:45.541Z,11.97
2023-02-28T20:55:12.759Z,13.13
2023-02-28T20:57:40.153Z,14.07
2023-02-28T21:00:09.507Z,12.97
2023-02-28T21:02:37.271Z,13.10
2023-02-28T21:05:04.519Z,12.87
2023-02-28T21:07:31.489Z,11.90
2023-02-28T21:09:58.226Z,13.50
2023-02-28T21:12:25.014Z,12.57
2023-02-28T21:14:52.031Z,12.73
2023-02-28T21:17:18.836Z,12.40
2023-02-28T21:19:47.139Z,12.63
2023-02-28T21:22:14.077Z,13.13
2023-02-28T21:24:40.972Z,12.27
2023-02-28T21:27:07.748Z,12.17
2023-02-28T21:29:34.508Z,13.07
2023-02-28T21:32:02.043Z,12.33
2023-02-28T21:34:28.868Z,11.57
2023-02-28T21:36:57.741Z,11.27
2023-02-28T21:39:29.414Z,11.97
2023-02-28T21:41:57.339Z,12.47
2023-02-28T21:44:25.747Z,12.33
2023-02-28T21:46:55.177Z,11.90
2023-02-28T21:49:22.398Z,12.23
2023-02-28T21:51:49.066Z,11.17
2023-02-28T21:54:16.065Z,13.20
2023-02-28T21:56:42.940Z,14.63
2023-02-28T21:59:10.797Z,13.43
2023-02-28T22:01:40.396Z,13.00
2023-02-28T22:04:09.554Z,12.97
2023-02-28T22:06:41.134Z,14.03
2023-02-28T22:09:10.439Z,13.77
2023-02-28T22:11:39.142Z,13.40
2023-02-28T22:14:07.548Z,13.80
2023-02-28T22:16:49.398Z,13.13
2023-02-28T22:19:18.404Z,13.30
2023-02-28T22:21:46.786Z,16.27
2023-02-28T22:24:14.789Z,16.57
2023-02-28T22:26:41.706Z,16.57
2023-02-28T22:29:08.877Z,19.53
2023-02-28T22:31:36.163Z,17.97
2023-02-28T22:34:09.233Z,17.27
2023-02-28T22:36:36.742Z,16.87
2023-02-28T22:39:05.460Z,16.87
2023-02-28T22:41:32.832Z,18.30
2023-02-28T22:44:02.426Z,17.60
2023-02-28T22:46:31.724Z,17.47
2023-02-28T22:48:59.841Z,17.27
2023-02-28T22:51:27.340Z,17.00
2023-02-28T22:53:56.125Z,15.03
2023-02-28T22:56:25.592Z,16.10
2023-02-28T22:58:54.370Z,16.43
2023-02-28T23:01:23.354Z,17.53
2023-02-28T23:03:50.275Z,14.40
2023-02-28T23:06:25.722Z,15.43
2023-02-28T23:08:55.209Z,17.77
2023-02-28T23:11:24.723Z,16.23
2023-02-28T23:13:58.843Z,15.37
2023-02-28T23:16:27.255Z,14.67
2023-02-28T23:18:54.026Z,14.53
2023-02-28T23:21:20.842Z,14.53
2023-02-28T23:23:47.789Z,13.80
2023-02-28T23:26:14.550Z,14.47
2023-02-28T23:28:41.247Z,13.23
2023-02-28T23:31:08.007Z,12.30
2023-02-28T23:33:34.862Z,14.43
2023-02-28T23:36:09.863Z,13.77
2023-02-28T23:38:37.029Z,13.23
2023-02-28T23:41:10.264Z,13.07
2023-02-28T23:43:37.144Z,13.50
2023-02-28T23:46:04.610Z,13.47
2023-02-28T23:48:31.515Z,13.00
2023-02-28T23:51:08.542Z,13.97
2023-02-28T23:53:40.087Z,13.27
2023-02-28T23:56:08.503Z,13.77
2023-02-28T23:58:36.084Z,13.10
